createdAt,value
2023-12-20T00:04:58.487Z,0.50
2023-12-20T00:15:42.038Z,0.60
2023-12-20T00:20:59.063Z,0.60
2023-12-20T00:31:40.032Z,0.50
2023-12-20T00:36:56.306Z,0.55
2023-12-20T00:42:03.919Z,0.50
2023-12-20T00:47:56.557Z,0.57
2023-12-20T00:58:57.407Z,0.50
2023-12-20T01:04:05.180Z,0.63
2023-12-20T01:09:53.222Z,0.60
2023-12-20T01:15:00.953Z,0.65
2023-12-20T01:25:55.300Z,0.52
2023-12-20T01:31:02.929Z,0.80
2023-12-20T01:42:01.268Z,0.60
2023-12-20T01:52:49.527Z,0.60
2023-12-20T01:58:01.460Z,0.60
2023-12-20T02:08:58.797Z,0.40
2023-12-20T02:20:01.266Z,0.55
2023-12-20T02:25:57.310Z,0.70
2023-12-20T02:37:01.673Z,0.60
2023-12-20T02:48:03.388Z,0.75
2023-12-20T02:53:27.323Z,0.50
2023-12-20T02:58:54.320Z,0.47
2023-12-20T03:04:04.561Z,0.30
2023-12-20T03:10:05.683Z,0.30
2023-12-20T03:15:29.924Z,0.60
2023-12-20T03:20:59.036Z,0.30
2023-12-20T03:26:06.990Z,0.40
2023-12-20T03:31:59.566Z,0.40
2023-12-20T03:43:04.449Z,0.38
2023-12-20T03:49:01.097Z,0.40
2023-12-20T03:54:57.759Z,0.40
2023-12-20T04:00:29.720Z,0.30
2023-12-20T04:05:59.126Z,0.40
2023-12-20T04:11:07.268Z,0.30
2023-12-20T04:16:56.369Z,0.30
2023-12-20T04:22:04.016Z,0.30
2023-12-20T04:27:57.063Z,0.55
2023-12-20T04:33:48.380Z,0.30
2023-12-20T04:39:01.133Z,0.30
2023-12-20T04:50:04.184Z,0.57
2023-12-20T04:56:00.593Z,0.30
2023-12-20T05:07:06.614Z,0.50
2023-12-20T05:12:57.209Z,0.50
2023-12-20T05:18:04.870Z,0.80
2023-12-20T05:23:55.924Z,0.55
2023-12-20T05:29:03.463Z,0.45
2023-12-20T05:39:47.645Z,0.40
2023-12-20T05:45:01.006Z,0.30
2023-12-20T05:56:02.786Z,0.50
2023-12-20T06:07:01.033Z,0.90
2023-12-20T06:12:59.005Z,0.70
2023-12-20T06:18:09.489Z,0.50
2023-12-20T06:23:17.079Z,0.65
2023-12-20T06:28:27.319Z,0.55
2023-12-20T06:40:39.616Z,0.60
2023-12-20T06:53:26.888Z,3.90
2023-12-20T07:06:04.425Z,3.53
2023-12-20T07:11:38.557Z,0.50
2023-12-20T07:16:53.182Z,0.70
2023-12-20T07:28:58.224Z,0.50
2023-12-20T07:34:38.090Z,0.43
2023-12-20T07:40:14.586Z,0.82
2023-12-20T07:46:42.534Z,0.43
2023-12-20T07:53:26.286Z,1.00
2023-12-20T08:09:19.946Z,0.73
2023-12-20T08:13:34.932Z,0.70
2023-12-20T08:26:36.969Z,1.60
2023-12-20T08:44:42.102Z,0.80
2023-12-20T08:50:21.422Z,1.15
2023-12-20T08:57:12.432Z,0.60
2023-12-20T09:02:59.494Z,0.70
2023-12-20T09:08:23.198Z,1.70
2023-12-20T09:14:13.390Z,0.93
2023-12-20T09:19:58.950Z,1.77
2023-12-20T09:25:19.799Z,2.35
2023-12-20T09:30:47.631Z,3.10
2023-12-20T09:35:55.525Z,0.75
2023-12-20T09:41:09.790Z,1.65
2023-12-20T09:46:43.968Z,1.20
2023-12-20T09:51:56.734Z,1.55
2023-12-20T09:57:15.849Z,1.27
2023-12-20T10:02:35.568Z,2.22
2023-12-20T10:07:59.056Z,6.63
2023-12-20T10:13:20.835Z,1.02
2023-12-20T10:18:40.852Z,3.80
2023-12-20T10:23:54.861Z,1.95
2023-12-20T10:29:16.281Z,3.60
2023-12-20T10:34:28.029Z,3.33
2023-12-20T10:39:40.887Z,1.90
2023-12-20T10:44:53.772Z,1.95
2023-12-20T10:50:32.364Z,1.52
2023-12-20T10:55:51.485Z,5.97
2023-12-20T11:01:42.101Z,4.18
2023-12-20T11:07:39.319Z,0.85
2023-12-20T11:13:06.374Z,2.13
2023-12-20T11:18:32.998Z,0.70
2023-12-20T11:24:13.546Z,2.72
2023-12-20T11:29:52.696Z,1.80
2023-12-20T11:35:24.184Z,3.75
2023-12-20T11:40:43.429Z,5.53
2023-12-20T11:46:22.587Z,6.95
2023-12-20T11:51:30.201Z,1.90
2023-12-20T11:56:37.817Z,2.90
2023-12-20T12:07:38.766Z,2.23
2023-12-20T12:13:04.991Z,4.00
2023-12-20T12:19:03.449Z,3.55
2023-12-20T12:24:57.183Z,3.45
2023-12-20T12:30:05.809Z,2.88
2023-12-20T12:41:51.061Z,2.75
2023-12-20T12:46:58.785Z,2.60
2023-12-20T12:52:07.052Z,2.60
2023-12-20T12:57:54.376Z,1.98
2023-12-20T13:03:57.456Z,1.80
2023-12-20T13:09:14.868Z,3.72
2023-12-20T13:15:15.570Z,2.22
2023-12-20T13:21:02.564Z,2.00
2023-12-20T13:46:18.629Z,0.93
2023-12-20T14:15:19.737Z,1.42
2023-12-20T14:23:50.331Z,2.60
2023-12-20T14:29:18.689Z,1.77
2023-12-20T14:34:59.220Z,3.05
2023-12-20T14:46:58.073Z,2.75
2023-12-20T14:53:06.983Z,2.00
2023-12-20T14:58:44.495Z,2.55
2023-12-20T15:03:58.069Z,2.83
2023-12-20T15:14:51.252Z,2.85
2023-12-20T15:26:05.508Z,4.07
2023-12-20T15:37:11.742Z,3.38
2023-12-20T15:42:19.265Z,2.80
2023-12-20T15:48:08.481Z,2.08
2023-12-20T15:54:07.212Z,2.22
2023-12-20T16:12:34.986Z,1.75
2023-12-20T16:36:30.004Z,2.20
2023-12-20T17:00:53.324Z,3.70
2023-12-20T18:28:32.062Z,5.40
2023-12-20T18:34:37.470Z,2.45
2023-12-20T19:11:33.164Z,3.45
2023-12-20T19:30:07.388Z,2.83
2023-12-20T19:36:18.224Z,2.72
2023-12-20T19:42:31.195Z,6.47
2023-12-20T19:48:42.224Z,5.88
2023-12-20T19:54:40.660Z,5.07
2023-12-20T20:07:15.591Z,4.05
2023-12-20T20:57:50.297Z,1.20
2023-12-20T21:48:59.796Z,0.70
2023-12-20T23:07:07.890Z,1.88
2023-12-20T23:18:07.265Z,1.92
2023-12-20T23:24:02.243Z,2.42
2023-12-20T23:29:55.427Z,0.82
2023-12-20T23:35:15.693Z,0.77
2023-12-20T23:41:03.608Z,1.08
2023-12-20T23:52:03.676Z,0.98
